sensor_id;sensor_type;location;lat;lon;timestamp;temperature;humidity
21622;DHT22;10973;46.706;12.340;2023-12-20T00:01:18;-4.30;99.90
21622;DHT22;10973;46.706;12.340;2023-12-20T00:03:45;-4.40;99.90
21622;DHT22;10973;46.706;12.340;2023-12-20T00:06:13;-4.40;99.90
21622;DHT22;10973;46.706;12.340;2023-12-20T00:08:41;-4.40;99.90
21622;DHT22;10973;46.706;12.340;2023-12-20T00:11:09;-4.40;99.90
21622;DHT22;10973;46.706;12.340;2023-12-20T00:13:36;-4.40;99.90
21622;DHT22;10973;46.706;12.340;2023-12-20T00:16:04;-4.40;99.90
21622;DHT22;10973;46.706;12.340;2023-12-20T00:18:32;-4.40;99.90
21622;DHT22;10973;46.706;12.340;2023-12-20T00:21:00;-4.40;99.90
21622;DHT22;10973;46.706;12.340;2023-12-20T00:23:28;-4.50;99.90
21622;DHT22;10973;46.706;12.340;2023-12-20T00:25:55;-4.40;99.90
21622;DHT22;10973;46.706;12.340;2023-12-20T00:30:54;-4.50;99.90
21622;DHT22;10973;46.706;12.340;2023-12-20T00:33:22;-4.40;99.90
21622;DHT22;10973;46.706;12.340;2023-12-20T00:35:49;-4.40;99.90
21622;DHT22;10973;46.706;12.340;2023-12-20T00:38:17;-4.30;99.90
21622;DHT22;10973;46.706;12.340;2023-12-20T00:40:45;-4.30;99.90
21622;DHT22;10973;46.706;12.340;2023-12-20T00:43:12;-4.20;99.90
21622;DHT22;10973;46.706;12.340;2023-12-20T00:45:40;-4.20;99.90
21622;DHT22;10973;46.706;12.340;2023-12-20T00:48:08;-4.10;99.90
21622;DHT22;10973;46.706;12.340;2023-12-20T00:50:36;-4.20;99.90
21622;DHT22;10973;46.706;12.340;2023-12-20T00:53:03;-4.30;99.90
21622;DHT22;10973;46.706;12.340;2023-12-20T00:55:31;-4.30;99.90
21622;DHT22;10973;46.706;12.340;2023-12-20T00:58:18;-4.20;99.90
21622;DHT22;10973;46.706;12.340;2023-12-20T01:00:46;-4.40;99.90
21622;DHT22;10973;46.706;12.340;2023-12-20T01:03:14;-4.20;99.90
21622;DHT22;10973;46.706;12.340;2023-12-20T01:05:42;-4.20;99.90
21622;DHT22;10973;46.706;12.340;2023-12-20T01:08:10;-4.20;99.90
21622;DHT22;10973;46.706;12.340;2023-12-20T01:10:37;-4.20;99.90
21622;DHT22;10973;46.706;12.340;2023-12-20T01:13:05;-4.30;99.90
21622;DHT22;10973;46.706;12.340;2023-12-20T01:15:33;-4.20;99.90
21622;DHT22;10973;46.706;12.340;2023-12-20T01:18:01;-4.20;99.90
21622;DHT22;10973;46.706;12.340;2023-12-20T01:20:29;-4.20;99.90
21622;DHT22;10973;46.706;12.340;2023-12-20T01:22:56;-4.40;99.90
21622;DHT22;10973;46.706;12.340;2023-12-20T01:25:24;-4.40;99.90
21622;DHT22;10973;46.706;12.340;2023-12-20T01:27:52;-4.50;99.90
21622;DHT22;10973;46.706;12.340;2023-12-20T01:30:20;-4.40;99.90
21622;DHT22;10973;46.706;12.340;2023-12-20T01:32:47;-4.50;99.90
21622;DHT22;10973;46.706;12.340;2023-12-20T01:35:15;-4.50;99.90
21622;DHT22;10973;46.706;12.340;2023-12-20T01:37:43;-4.50;99.90
21622;DHT22;10973;46.706;12.340;2023-12-20T01:40:11;-4.50;99.90
21622;DHT22;10973;46.706;12.340;2023-12-20T01:42:39;-4.60;99.90
21622;DHT22;10973;46.706;12.340;2023-12-20T01:45:07;-4.60;99.90
21622;DHT22;10973;46.706;12.340;2023-12-20T01:47:36;-3.90;99.90
21622;DHT22;10973;46.706;12.340;2023-12-20T01:50:05;-4.70;99.90
21622;DHT22;10973;46.706;12.340;2023-12-20T01:52:34;-4.70;99.90
21622;DHT22;10973;46.706;12.340;2023-12-20T01:55:02;-4.70;99.90
21622;DHT22;10973;46.706;12.340;2023-12-20T01:57:31;-4.80;99.90
21622;DHT22;10973;46.706;12.340;2023-12-20T02:00:00;-4.80;99.90
21622;DHT22;10973;46.706;12.340;2023-12-20T02:02:31;-4.70;99.90
21622;DHT22;10973;46.706;12.340;2023-12-20T02:04:59;-4.80;99.90
21622;DHT22;10973;46.706;12.340;2023-12-20T02:07:27;-4.80;99.90
21622;DHT22;10973;46.706;12.340;2023-12-20T02:09:56;-4.70;99.90
21622;DHT22;10973;46.706;12.340;2023-12-20T02:12:25;-4.80;99.90
21622;DHT22;10973;46.706;12.340;2023-12-20T02:14:52;-4.70;99.90
21622;DHT22;10973;46.706;12.340;2023-12-20T02:17:20;-4.80;99.90
21622;DHT22;10973;46.706;12.340;2023-12-20T02:19:49;-4.90;99.90
21622;DHT22;10973;46.706;12.340;2023-12-20T02:22:17;-4.90;99.90
21622;DHT22;10973;46.706;12.340;2023-12-20T02:24:45;-5.00;99.90
21622;DHT22;10973;46.706;12.340;2023-12-20T02:27:15;-4.90;99.90
21622;DHT22;10973;46.706;12.340;2023-12-20T02:29:47;-5.00;99.90
21622;DHT22;10973;46.706;12.340;2023-12-20T02:32:18;-4.90;99.90
21622;DHT22;10973;46.706;12.340;2023-12-20T02:34:47;-4.80;99.90
21622;DHT22;10973;46.706;12.340;2023-12-20T03:34:07;-4.80;99.90
21622;DHT22;10973;46.706;12.340;2023-12-20T03:36:36;-4.90;99.90
21622;DHT22;10973;46.706;12.340;2023-12-20T03:39:04;-4.90;99.90
21622;DHT22;10973;46.706;12.340;2023-12-20T03:41:32;-5.90;99.90
21622;DHT22;10973;46.706;12.340;2023-12-20T03:44:00;-4.90;99.90
21622;DHT22;10973;46.706;12.340;2023-12-20T03:46:28;-4.90;99.90
21622;DHT22;10973;46.706;12.340;2023-12-20T03:48:56;-4.80;99.90
21622;DHT22;10973;46.706;12.340;2023-12-20T03:51:24;-4.70;99.90
21622;DHT22;10973;46.706;12.340;2023-12-20T03:53:51;-4.70;99.90
21622;DHT22;10973;46.706;12.340;2023-12-20T03:56:19;-4.70;99.90
21622;DHT22;10973;46.706;12.340;2023-12-20T03:58:47;-4.70;99.90
21622;DHT22;10973;46.706;12.340;2023-12-20T04:01:14;-4.70;99.90
21622;DHT22;10973;46.706;12.340;2023-12-20T04:03:42;-4.80;99.90
21622;DHT22;10973;46.706;12.340;2023-12-20T04:06:10;-4.70;99.90
21622;DHT22;10973;46.706;12.340;2023-12-20T04:08:44;-4.70;99.90
21622;DHT22;10973;46.706;12.340;2023-12-20T04:11:11;-4.70;99.90
21622;DHT22;10973;46.706;12.340;2023-12-20T04:13:39;-4.80;99.90
21622;DHT22;10973;46.706;12.340;2023-12-20T04:16:06;-4.80;99.90
21622;DHT22;10973;46.706;12.340;2023-12-20T04:18:34;-4.80;99.90
21622;DHT22;10973;46.706;12.340;2023-12-20T04:21:02;-4.80;99.90
21622;DHT22;10973;46.706;12.340;2023-12-20T04:23:30;-4.70;99.90
21622;DHT22;10973;46.706;12.340;2023-12-20T04:25:58;-4.90;99.90
21622;DHT22;10973;46.706;12.340;2023-12-20T04:28:25;-4.80;99.90
21622;DHT22;10973;46.706;12.340;2023-12-20T04:30:53;-4.90;99.90
21622;DHT22;10973;46.706;12.340;2023-12-20T04:33:21;-4.70;99.90
21622;DHT22;10973;46.706;12.340;2023-12-20T04:35:49;-4.80;99.90
21622;DHT22;10973;46.706;12.340;2023-12-20T04:38:17;-4.80;99.90
21622;DHT22;10973;46.706;12.340;2023-12-20T04:40:44;-4.80;99.90
21622;DHT22;10973;46.706;12.340;2023-12-20T04:43:12;-4.80;99.90
21622;DHT22;10973;46.706;12.340;2023-12-20T04:45:40;-4.80;99.90
21622;DHT22;10973;46.706;12.340;2023-12-20T04:50:36;-4.80;99.90
21622;DHT22;10973;46.706;12.340;2023-12-20T04:53:03;-4.90;99.90
21622;DHT22;10973;46.706;12.340;2023-12-20T04:55:31;-4.90;99.90
21622;DHT22;10973;46.706;12.340;2023-12-20T04:57:59;-4.90;99.90
21622;DHT22;10973;46.706;12.340;2023-12-20T05:00:26;-2.30;99.90
21622;DHT22;10973;46.706;12.340;2023-12-20T05:02:54;-4.80;99.90
21622;DHT22;10973;46.706;12.340;2023-12-20T05:05:22;-4.80;99.90
21622;DHT22;10973;46.706;12.340;2023-12-20T05:07:49;-4.80;99.90
21622;DHT22;10973;46.706;12.340;2023-12-20T05:10:17;-4.70;99.90
21622;DHT22;10973;46.706;12.340;2023-12-20T05:15:13;-4.60;99.90
21622;DHT22;10973;46.706;12.340;2023-12-20T05:17:41;-4.60;99.90
21622;DHT22;10973;46.706;12.340;2023-12-20T05:20:09;-4.40;99.90
21622;DHT22;10973;46.706;12.340;2023-12-20T05:22:37;-4.30;99.90
21622;DHT22;10973;46.706;12.340;2023-12-20T05:25:05;-4.20;99.90
21622;DHT22;10973;46.706;12.340;2023-12-20T05:27:33;-4.10;99.90
21622;DHT22;10973;46.706;12.340;2023-12-20T05:30:01;-4.00;99.90
21622;DHT22;10973;46.706;12.340;2023-12-20T05:32:28;-4.00;99.90
21622;DHT22;10973;46.706;12.340;2023-12-20T05:34:56;-4.00;99.90
21622;DHT22;10973;46.706;12.340;2023-12-20T05:37:24;-4.00;99.90
21622;DHT22;10973;46.706;12.340;2023-12-20T05:39:52;-3.90;99.90
21622;DHT22;10973;46.706;12.340;2023-12-20T05:42:20;-5.60;99.90
21622;DHT22;10973;46.706;12.340;2023-12-20T05:44:48;-3.90;99.90
21622;DHT22;10973;46.706;12.340;2023-12-20T05:47:18;-3.80;99.90
21622;DHT22;10973;46.706;12.340;2023-12-20T05:49:46;-3.90;99.90
21622;DHT22;10973;46.706;12.340;2023-12-20T05:54:42;-3.80;99.90
21622;DHT22;10973;46.706;12.340;2023-12-20T05:57:09;-3.80;99.90
21622;DHT22;10973;46.706;12.340;2023-12-20T05:59:37;-3.60;99.90
21622;DHT22;10973;46.706;12.340;2023-12-20T06:02:05;-3.60;99.90
21622;DHT22;10973;46.706;12.340;2023-12-20T06:04:32;-3.60;99.90
21622;DHT22;10973;46.706;12.340;2023-12-20T06:07:00;-3.60;99.90
21622;DHT22;10973;46.706;12.340;2023-12-20T06:09:28;-3.60;99.90
21622;DHT22;10973;46.706;12.340;2023-12-20T06:11:58;-3.60;99.90
21622;DHT22;10973;46.706;12.340;2023-12-20T06:14:25;-3.60;99.90
21622;DHT22;10973;46.706;12.340;2023-12-20T06:19:21;-4.90;99.90
21622;DHT22;10973;46.706;12.340;2023-12-20T06:21:50;-3.60;99.90
21622;DHT22;10973;46.706;12.340;2023-12-20T06:24:17;-3.60;99.90
21622;DHT22;10973;46.706;12.340;2023-12-20T06:26:45;-3.60;99.90
21622;DHT22;10973;46.706;12.340;2023-12-20T06:29:12;-3.50;99.90
21622;DHT22;10973;46.706;12.340;2023-12-20T06:31:40;-3.40;99.90
21622;DHT22;10973;46.706;12.340;2023-12-20T06:36:36;-3.40;99.90
21622;DHT22;10973;46.706;12.340;2023-12-20T06:39:04;-3.40;99.90
21622;DHT22;10973;46.706;12.340;2023-12-20T06:44:00;-3.20;99.90
21622;DHT22;10973;46.706;12.340;2023-12-20T06:46:27;-3.10;99.90
21622;DHT22;10973;46.706;12.340;2023-12-20T06:48:55;-3.00;99.90
21622;DHT22;10973;46.706;12.340;2023-12-20T06:51:23;-2.90;99.90
21622;DHT22;10973;46.706;12.340;2023-12-20T06:53:52;-2.90;99.90
21622;DHT22;10973;46.706;12.340;2023-12-20T06:56:20;-2.80;99.90
21622;DHT22;10973;46.706;12.340;2023-12-20T06:58:48;-2.80;99.90
21622;DHT22;10973;46.706;12.340;2023-12-20T07:01:16;-2.80;99.90
21622;DHT22;10973;46.706;12.340;2023-12-20T07:03:44;-2.70;99.90
21622;DHT22;10973;46.706;12.340;2023-12-20T07:06:13;-2.70;99.90
21622;DHT22;10973;46.706;12.340;2023-12-20T07:08:44;-2.70;99.90
21622;DHT22;10973;46.706;12.340;2023-12-20T07:11:11;-2.60;99.90
21622;DHT22;10973;46.706;12.340;2023-12-20T07:13:39;-2.60;99.90
21622;DHT22;10973;46.706;12.340;2023-12-20T07:16:07;-2.60;99.90
21622;DHT22;10973;46.706;12.340;2023-12-20T07:18:34;-2.70;99.90
21622;DHT22;10973;46.706;12.340;2023-12-20T07:21:02;-2.60;99.90
21622;DHT22;10973;46.706;12.340;2023-12-20T07:23:30;-2.60;99.90
21622;DHT22;10973;46.706;12.340;2023-12-20T07:25:58;-2.50;99.90
21622;DHT22;10973;46.706;12.340;2023-12-20T07:28:25;-2.50;99.90
21622;DHT22;10973;46.706;12.340;2023-12-20T07:30:55;-2.50;99.90
21622;DHT22;10973;46.706;12.340;2023-12-20T07:33:23;-2.40;99.90
21622;DHT22;10973;46.706;12.340;2023-12-20T07:35:52;-2.40;99.90
21622;DHT22;10973;46.706;12.340;2023-12-20T07:38:20;-2.40;99.90
21622;DHT22;10973;46.706;12.340;2023-12-20T07:40:48;-2.30;99.90
21622;DHT22;10973;46.706;12.340;2023-12-20T07:43:16;-2.30;99.90
21622;DHT22;10973;46.706;12.340;2023-12-20T07:45:43;-2.30;99.90
21622;DHT22;10973;46.706;12.340;2023-12-20T07:48:11;-2.30;99.90
21622;DHT22;10973;46.706;12.340;2023-12-20T07:50:39;-2.30;99.90
21622;DHT22;10973;46.706;12.340;2023-12-20T07:53:09;-2.30;99.90
21622;DHT22;10973;46.706;12.340;2023-12-20T07:55:38;-2.30;99.90
21622;DHT22;10973;46.706;12.340;2023-12-20T07:58:07;-2.20;99.90
21622;DHT22;10973;46.706;12.340;2023-12-20T08:00:34;-2.10;99.90
21622;DHT22;10973;46.706;12.340;2023-12-20T08:03:02;-2.00;99.90
21622;DHT22;10973;46.706;12.340;2023-12-20T08:05:30;-2.00;99.90
21622;DHT22;10973;46.706;12.340;2023-12-20T08:08:01;-2.00;99.90
21622;DHT22;10973;46.706;12.340;2023-12-20T08:10:28;-2.00;99.90
21622;DHT22;10973;46.706;12.340;2023-12-20T08:12:56;-1.80;99.90
21622;DHT22;10973;46.706;12.340;2023-12-20T08:15:25;-1.80;99.90
21622;DHT22;10973;46.706;12.340;2023-12-20T08:17:54;-1.70;99.90
21622;DHT22;10973;46.706;12.340;2023-12-20T08:20:21;-1.70;99.90
21622;DHT22;10973;46.706;12.340;2023-12-20T08:23:02;-1.60;99.90
21622;DHT22;10973;46.706;12.340;2023-12-20T08:25:35;-1.50;99.90
21622;DHT22;10973;46.706;12.340;2023-12-20T08:28:08;-1.50;99.90
21622;DHT22;10973;46.706;12.340;2023-12-20T08:30:36;-1.50;99.90
21622;DHT22;10973;46.706;12.340;2023-12-20T08:33:04;-1.40;99.90
21622;DHT22;10973;46.706;12.340;2023-12-20T08:35:32;-1.40;99.90
21622;DHT22;10973;46.706;12.340;2023-12-20T08:37:59;-1.40;99.90
21622;DHT22;10973;46.706;12.340;2023-12-20T08:40:27;-1.40;99.90
21622;DHT22;10973;46.706;12.340;2023-12-20T08:42:54;-1.30;99.90
21622;DHT22;10973;46.706;12.340;2023-12-20T08:45:22;-1.20;99.90
21622;DHT22;10973;46.706;12.340;2023-12-20T08:47:49;-1.20;99.90
21622;DHT22;10973;46.706;12.340;2023-12-20T08:50:18;-1.20;99.90
21622;DHT22;10973;46.706;12.340;2023-12-20T08:52:46;-1.10;99.90
21622;DHT22;10973;46.706;12.340;2023-12-20T08:55:13;-1.00;99.90
21622;DHT22;10973;46.706;12.340;2023-12-20T08:57:41;-1.00;99.90
21622;DHT22;10973;46.706;12.340;2023-12-20T09:00:09;-1.00;99.90
21622;DHT22;10973;46.706;12.340;2023-12-20T09:02:38;-0.90;99.90
21622;DHT22;10973;46.706;12.340;2023-12-20T09:05:05;-0.90;99.90
21622;DHT22;10973;46.706;12.340;2023-12-20T09:07:34;-0.90;99.90
21622;DHT22;10973;46.706;12.340;2023-12-20T09:10:01;-0.90;99.90
21622;DHT22;10973;46.706;12.340;2023-12-20T09:12:29;-0.80;99.90
21622;DHT22;10973;46.706;12.340;2023-12-20T09:14:56;-0.80;99.90
21622;DHT22;10973;46.706;12.340;2023-12-20T09:17:24;-0.80;99.90
21622;DHT22;10973;46.706;12.340;2023-12-20T09:19:52;-0.80;99.90
21622;DHT22;10973;46.706;12.340;2023-12-20T09:22:20;-0.80;99.90
21622;DHT22;10973;46.706;12.340;2023-12-20T09:24:48;-0.80;99.90
21622;DHT22;10973;46.706;12.340;2023-12-20T09:27:16;-0.80;99.90
21622;DHT22;10973;46.706;12.340;2023-12-20T09:29:43;-0.80;99.90
21622;DHT22;10973;46.706;12.340;2023-12-20T09:32:10;-0.80;99.90
21622;DHT22;10973;46.706;12.340;2023-12-20T09:34:38;-0.70;99.90
21622;DHT22;10973;46.706;12.340;2023-12-20T09:37:05;-0.70;99.90
21622;DHT22;10973;46.706;12.340;2023-12-20T09:39:33;-0.60;99.90
21622;DHT22;10973;46.706;12.340;2023-12-20T09:42:03;-0.60;99.90
21622;DHT22;10973;46.706;12.340;2023-12-20T09:44:32;-0.50;99.90
21622;DHT22;10973;46.706;12.340;2023-12-20T09:47:03;-0.50;99.90
21622;DHT22;10973;46.706;12.340;2023-12-20T09:49:32;-0.50;99.90
21622;DHT22;10973;46.706;12.340;2023-12-20T09:52:01;-0.40;99.90
21622;DHT22;10973;46.706;12.340;2023-12-20T09:54:32;-0.30;99.90
21622;DHT22;10973;46.706;12.340;2023-12-20T09:56:59;-0.30;99.90
21622;DHT22;10973;46.706;12.340;2023-12-20T09:59:27;-0.20;99.90
21622;DHT22;10973;46.706;12.340;2023-12-20T10:01:55;-0.10;99.90
21622;DHT22;10973;46.706;12.340;2023-12-20T10:04:24;0.00;99.90
21622;DHT22;10973;46.706;12.340;2023-12-20T10:06:57;0.00;99.90
21622;DHT22;10973;46.706;12.340;2023-12-20T10:09:32;0.10;99.90
21622;DHT22;10973;46.706;12.340;2023-12-20T10:12:01;0.20;99.90
21622;DHT22;10973;46.706;12.340;2023-12-20T10:14:28;0.10;99.90
21622;DHT22;10973;46.706;12.340;2023-12-20T10:17:02;0.20;99.90
21622;DHT22;10973;46.706;12.340;2023-12-20T10:19:31;0.20;99.90
21622;DHT22;10973;46.706;12.340;2023-12-20T10:22:00;0.30;99.90
21622;DHT22;10973;46.706;12.340;2023-12-20T10:24:31;0.30;99.90
21622;DHT22;10973;46.706;12.340;2023-12-20T10:27:04;0.40;99.90
21622;DHT22;10973;46.706;12.340;2023-12-20T10:29:35;0.50;99.90
21622;DHT22;10973;46.706;12.340;2023-12-20T10:34:53;0.60;99.90
21622;DHT22;10973;46.706;12.340;2023-12-20T10:37:22;0.70;99.90
21622;DHT22;10973;46.706;12.340;2023-12-20T10:39:52;0.80;99.90
21622;DHT22;10973;46.706;12.340;2023-12-20T10:42:22;0.80;99.90
21622;DHT22;10973;46.706;12.340;2023-12-20T10:44:50;0.90;99.90
21622;DHT22;10973;46.706;12.340;2023-12-20T10:47:17;0.90;99.90
21622;DHT22;10973;46.706;12.340;2023-12-20T10:49:46;0.90;99.90
21622;DHT22;10973;46.706;12.340;2023-12-20T10:52:14;1.00;99.90
21622;DHT22;10973;46.706;12.340;2023-12-20T10:54:45;1.00;99.90
21622;DHT22;10973;46.706;12.340;2023-12-20T10:57:12;1.00;99.90
21622;DHT22;10973;46.706;12.340;2023-12-20T10:59:41;1.00;99.90
21622;DHT22;10973;46.706;12.340;2023-12-20T11:02:16;1.10;99.90
21622;DHT22;10973;46.706;12.340;2023-12-20T11:07:46;1.10;99.90
21622;DHT22;10973;46.706;12.340;2023-12-20T11:10:18;1.20;99.90
21622;DHT22;10973;46.706;12.340;2023-12-20T11:12:57;1.20;99.90
21622;DHT22;10973;46.706;12.340;2023-12-20T11:15:39;1.20;99.90
21622;DHT22;10973;46.706;12.340;2023-12-20T11:18:09;1.30;99.90
21622;DHT22;10973;46.706;12.340;2023-12-20T11:20:41;1.30;99.90
21622;DHT22;10973;46.706;12.340;2023-12-20T11:23:09;1.40;99.90
21622;DHT22;10973;46.706;12.340;2023-12-20T11:25:53;1.40;99.90
21622;DHT22;10973;46.706;12.340;2023-12-20T11:28:24;1.50;99.90
21622;DHT22;10973;46.706;12.340;2023-12-20T11:31:01;1.50;99.90
21622;DHT22;10973;46.706;12.340;2023-12-20T11:33:35;1.50;99.90
21622;DHT22;10973;46.706;12.340;2023-12-20T11:36:13;1.50;99.90
21622;DHT22;10973;46.706;12.340;2023-12-20T11:38:58;1.60;99.90
21622;DHT22;10973;46.706;12.340;2023-12-20T11:41:26;1.60;99.90
21622;DHT22;10973;46.706;12.340;2023-12-20T11:43:54;1.70;99.90
21622;DHT22;10973;46.706;12.340;2023-12-20T11:46:22;1.70;99.90
21622;DHT22;10973;46.706;12.340;2023-12-20T11:48:50;1.90;99.90
21622;DHT22;10973;46.706;12.340;2023-12-20T11:51:19;2.00;99.90
21622;DHT22;10973;46.706;12.340;2023-12-20T11:53:51;1.90;99.90
21622;DHT22;10973;46.706;12.340;2023-12-20T11:56:19;1.90;99.90
21622;DHT22;10973;46.706;12.340;2023-12-20T11:58:47;1.80;99.90
21622;DHT22;10973;46.706;12.340;2023-12-20T12:01:17;1.80;99.90
21622;DHT22;10973;46.706;12.340;2023-12-20T12:03:47;1.70;99.90
21622;DHT22;10973;46.706;12.340;2023-12-20T12:06:15;1.80;99.90
21622;DHT22;10973;46.706;12.340;2023-12-20T12:08:42;1.80;99.90
21622;DHT22;10973;46.706;12.340;2023-12-20T12:11:10;1.80;99.90
21622;DHT22;10973;46.706;12.340;2023-12-20T12:13:37;1.80;99.90
21622;DHT22;10973;46.706;12.340;2023-12-20T12:16:05;1.80;99.90
21622;DHT22;10973;46.706;12.340;2023-12-20T12:18:33;1.80;99.90
21622;DHT22;10973;46.706;12.340;2023-12-20T12:21:01;1.70;99.90
21622;DHT22;10973;46.706;12.340;2023-12-20T12:23:28;1.70;99.90
21622;DHT22;10973;46.706;12.340;2023-12-20T12:25:56;1.70;99.90
21622;DHT22;10973;46.706;12.340;2023-12-20T12:28:26;1.60;99.90
21622;DHT22;10973;46.706;12.340;2023-12-20T12:31:00;1.50;99.90
21622;DHT22;10973;46.706;12.340;2023-12-20T12:33:29;1.40;99.90
21622;DHT22;10973;46.706;12.340;2023-12-20T12:35:57;1.30;99.90
21622;DHT22;10973;46.706;12.340;2023-12-20T12:38:24;1.20;99.90
21622;DHT22;10973;46.706;12.340;2023-12-20T12:40:52;1.20;99.90
21622;DHT22;10973;46.706;12.340;2023-12-20T12:43:22;1.10;99.90
21622;DHT22;10973;46.706;12.340;2023-12-20T12:45:50;1.00;99.90
21622;DHT22;10973;46.706;12.340;2023-12-20T12:48:18;0.90;99.90
21622;DHT22;10973;46.706;12.340;2023-12-20T12:50:46;0.80;99.90
21622;DHT22;10973;46.706;12.340;2023-12-20T12:53:13;0.70;99.90
21622;DHT22;10973;46.706;12.340;2023-12-20T12:55:41;0.70;99.90
21622;DHT22;10973;46.706;12.340;2023-12-20T12:58:09;0.70;99.90
21622;DHT22;10973;46.706;12.340;2023-12-20T13:00:36;0.70;99.90
21622;DHT22;10973;46.706;12.340;2023-12-20T13:03:04;0.60;99.90
21622;DHT22;10973;46.706;12.340;2023-12-20T13:05:32;0.60;99.90
21622;DHT22;10973;46.706;12.340;2023-12-20T13:08:06;0.60;99.90
21622;DHT22;10973;46.706;12.340;2023-12-20T13:10:36;0.60;99.90
21622;DHT22;10973;46.706;12.340;2023-12-20T13:13:04;0.60;99.90
21622;DHT22;10973;46.706;12.340;2023-12-20T13:15:32;0.60;99.90
21622;DHT22;10973;46.706;12.340;2023-12-20T13:18:01;0.60;99.90
21622;DHT22;10973;46.706;12.340;2023-12-20T13:20:29;0.50;99.90
21622;DHT22;10973;46.706;12.340;2023-12-20T13:22:57;0.40;99.90
21622;DHT22;10973;46.706;12.340;2023-12-20T13:25:25;0.50;99.90
21622;DHT22;10973;46.706;12.340;2023-12-20T13:27:53;0.40;99.90
21622;DHT22;10973;46.706;12.340;2023-12-20T13:30:21;0.40;99.90
21622;DHT22;10973;46.706;12.340;2023-12-20T13:32:48;0.30;99.90
21622;DHT22;10973;46.706;12.340;2023-12-20T13:35:16;0.20;99.90
21622;DHT22;10973;46.706;12.340;2023-12-20T13:37:44;0.20;99.90
21622;DHT22;10973;46.706;12.340;2023-12-20T13:40:12;0.20;99.90
21622;DHT22;10973;46.706;12.340;2023-12-20T13:42:40;0.10;99.90
21622;DHT22;10973;46.706;12.340;2023-12-20T13:45:08;0.10;99.90
21622;DHT22;10973;46.706;12.340;2023-12-20T13:47:35;0.10;99.90
21622;DHT22;10973;46.706;12.340;2023-12-20T13:50:03;0.10;99.90
21622;DHT22;10973;46.706;12.340;2023-12-20T13:52:32;0.10;99.90
21622;DHT22;10973;46.706;12.340;2023-12-20T13:55:04;0.00;99.90
21622;DHT22;10973;46.706;12.340;2023-12-20T13:57:33;0.00;99.90
21622;DHT22;10973;46.706;12.340;2023-12-20T14:00:18;0.00;99.90
21622;DHT22;10973;46.706;12.340;2023-12-20T14:02:46;-0.10;99.90
21622;DHT22;10973;46.706;12.340;2023-12-20T14:05:14;-0.20;99.90
21622;DHT22;10973;46.706;12.340;2023-12-20T14:07:42;-0.20;99.90
21622;DHT22;10973;46.706;12.340;2023-12-20T14:10:12;-0.10;99.90
21622;DHT22;10973;46.706;12.340;2023-12-20T14:15:11;-0.30;99.90
21622;DHT22;10973;46.706;12.340;2023-12-20T14:17:40;-0.30;99.90
21622;DHT22;10973;46.706;12.340;2023-12-20T14:20:09;-0.30;99.90
21622;DHT22;10973;46.706;12.340;2023-12-20T14:22:37;-0.30;99.90
21622;DHT22;10973;46.706;12.340;2023-12-20T14:25:05;-0.40;99.90
21622;DHT22;10973;46.706;12.340;2023-12-20T14:27:34;-0.40;99.90
21622;DHT22;10973;46.706;12.340;2023-12-20T14:30:01;-0.40;99.90
21622;DHT22;10973;46.706;12.340;2023-12-20T14:32:31;-0.50;99.90
21622;DHT22;10973;46.706;12.340;2023-12-20T14:35:01;-0.50;99.90
21622;DHT22;10973;46.706;12.340;2023-12-20T14:37:29;-0.50;99.90
21622;DHT22;10973;46.706;12.340;2023-12-20T14:39:57;-0.60;99.90
21622;DHT22;10973;46.706;12.340;2023-12-20T14:44:53;-0.70;99.90
21622;DHT22;10973;46.706;12.340;2023-12-20T14:47:20;-0.70;99.90
21622;DHT22;10973;46.706;12.340;2023-12-20T14:49:48;-0.80;99.90
21622;DHT22;10973;46.706;12.340;2023-12-20T14:52:18;-0.80;99.90
21622;DHT22;10973;46.706;12.340;2023-12-20T14:57:14;-0.90;99.90
21622;DHT22;10973;46.706;12.340;2023-12-20T15:02:09;-0.80;99.90
21622;DHT22;10973;46.706;12.340;2023-12-20T15:04:37;-0.80;99.90
21622;DHT22;10973;46.706;12.340;2023-12-20T15:07:04;-1.00;99.90
21622;DHT22;10973;46.706;12.340;2023-12-20T15:09:32;-1.00;99.90
21622;DHT22;10973;46.706;12.340;2023-12-20T15:12:00;-1.10;99.90
21622;DHT22;10973;46.706;12.340;2023-12-20T15:14:27;-1.10;99.90
21622;DHT22;10973;46.706;12.340;2023-12-20T15:16:55;-1.20;99.90
21622;DHT22;10973;46.706;12.340;2023-12-20T15:19:24;-1.20;99.90
21622;DHT22;10973;46.706;12.340;2023-12-20T15:21:52;-1.20;99.90
21622;DHT22;10973;46.706;12.340;2023-12-20T15:24:19;-1.30;99.90
21622;DHT22;10973;46.706;12.340;2023-12-20T15:26:47;-1.30;99.90
21622;DHT22;10973;46.706;12.340;2023-12-20T15:29:14;-1.30;99.90
21622;DHT22;10973;46.706;12.340;2023-12-20T15:31:44;-1.30;99.90
21622;DHT22;10973;46.706;12.340;2023-12-20T15:34:13;-1.30;99.90
21622;DHT22;10973;46.706;12.340;2023-12-20T15:36:42;-1.30;99.90
21622;DHT22;10973;46.706;12.340;2023-12-20T15:39:10;-1.40;99.90
21622;DHT22;10973;46.706;12.340;2023-12-20T15:41:38;-1.40;99.90
21622;DHT22;10973;46.706;12.340;2023-12-20T15:44:06;-1.40;99.90
21622;DHT22;10973;46.706;12.340;2023-12-20T15:49:02;-1.40;99.90
21622;DHT22;10973;46.706;12.340;2023-12-20T15:51:30;-1.40;99.90
21622;DHT22;10973;46.706;12.340;2023-12-20T15:53:58;-1.50;99.90
21622;DHT22;10973;46.706;12.340;2023-12-20T15:58:53;-1.60;99.90
21622;DHT22;10973;46.706;12.340;2023-12-20T16:01:21;-1.60;99.90
21622;DHT22;10973;46.706;12.340;2023-12-20T16:03:49;-1.70;99.90
21622;DHT22;10973;46.706;12.340;2023-12-20T16:06:25;-1.60;99.90
21622;DHT22;10973;46.706;12.340;2023-12-20T16:11:22;-1.90;99.90
21622;DHT22;10973;46.706;12.340;2023-12-20T16:18:47;-1.70;99.90
21622;DHT22;10973;46.706;12.340;2023-12-20T16:21:15;-1.80;99.90
21622;DHT22;10973;46.706;12.340;2023-12-20T16:23:43;-1.80;99.90
21622;DHT22;10973;46.706;12.340;2023-12-20T16:26:12;-1.80;99.90
21622;DHT22;10973;46.706;12.340;2023-12-20T16:28:40;-1.90;99.90
21622;DHT22;10973;46.706;12.340;2023-12-20T16:31:08;-1.90;99.90
21622;DHT22;10973;46.706;12.340;2023-12-20T16:33:35;-2.00;99.90
21622;DHT22;10973;46.706;12.340;2023-12-20T16:38:40;-2.00;99.90
21622;DHT22;10973;46.706;12.340;2023-12-20T16:41:08;-2.00;99.90
21622;DHT22;10973;46.706;12.340;2023-12-20T16:43:35;-1.90;99.90
21622;DHT22;10973;46.706;12.340;2023-12-20T16:46:03;-2.00;99.90
21622;DHT22;10973;46.706;12.340;2023-12-20T16:48:32;-2.00;99.90
21622;DHT22;10973;46.706;12.340;2023-12-20T16:51:01;-2.10;99.90
21622;DHT22;10973;46.706;12.340;2023-12-20T16:55:57;-2.20;99.90
21622;DHT22;10973;46.706;12.340;2023-12-20T16:58:27;-2.10;99.90
21622;DHT22;10973;46.706;12.340;2023-12-20T17:00:55;-2.00;99.90
21622;DHT22;10973;46.706;12.340;2023-12-20T17:03:23;-2.10;99.90
21622;DHT22;10973;46.706;12.340;2023-12-20T17:05:51;-2.20;99.90
21622;DHT22;10973;46.706;12.340;2023-12-20T17:08:19;-2.20;99.90
21622;DHT22;10973;46.706;12.340;2023-12-20T17:10:47;-2.20;99.90
21622;DHT22;10973;46.706;12.340;2023-12-20T17:13:15;-2.20;99.90
21622;DHT22;10973;46.706;12.340;2023-12-20T17:15:42;-2.30;99.90